createdAt,value
2022-11-10T00:02:44.629Z,3.28
2022-11-10T00:07:46.318Z,2.97
2022-11-10T00:12:48.081Z,2.90
2022-11-10T00:17:49.898Z,2.67
2022-11-10T00:22:51.583Z,2.30
2022-11-10T00:27:53.682Z,3.10
2022-11-10T00:32:55.301Z,3.15
2022-11-10T00:37:56.974Z,2.78
2022-11-10T00:42:58.667Z,2.78
2022-11-10T00:48:00.385Z,2.83
2022-11-10T00:53:02.061Z,2.38
2022-11-10T00:58:03.714Z,2.92
2022-11-10T01:03:05.696Z,2.47
2022-11-10T01:08:07.374Z,2.47
2022-11-10T01:13:09.198Z,2.65
2022-11-10T01:18:10.958Z,2.70
2022-11-10T01:23:12.621Z,2.78
2022-11-10T01:28:14.249Z,3.25
2022-11-10T01:33:17.702Z,2.72
2022-11-10T01:38:19.796Z,3.97
2022-11-10T01:43:22.089Z,2.65
2022-11-10T01:48:29.790Z,3.13
2022-11-10T01:53:35.784Z,2.60
2022-11-10T01:58:40.584Z,3.05
2022-11-10T02:03:53.672Z,2.90
2022-11-10T02:08:56.830Z,3.72
2022-11-10T02:13:59.987Z,3.30
2022-11-10T02:19:16.910Z,2.78
2022-11-10T02:24:18.718Z,3.47
2022-11-10T02:29:20.938Z,3.88
2022-11-10T02:34:22.645Z,4.40
2022-11-10T02:39:24.300Z,4.35
2022-11-10T02:44:25.975Z,4.05
2022-11-10T02:49:27.787Z,3.78
2022-11-10T02:54:29.467Z,4.43
2022-11-10T02:59:31.124Z,3.53
2022-11-10T03:04:32.783Z,3.75
2022-11-10T03:09:34.498Z,3.63
2022-11-10T03:14:36.159Z,4.38
2022-11-10T03:19:37.838Z,3.88
2022-11-10T03:24:39.597Z,4.20
2022-11-10T03:29:41.252Z,5.13
2022-11-10T03:34:42.903Z,4.05
2022-11-10T03:39:44.657Z,4.45
2022-11-10T03:44:46.353Z,4.22
2022-11-10T03:49:47.982Z,4.03
2022-11-10T03:54:49.688Z,4.10
2022-11-10T03:59:51.778Z,4.75
2022-11-10T04:05:11.959Z,5.15
2022-11-10T04:10:13.943Z,4.65
2022-11-10T04:15:34.349Z,3.92
2022-11-10T04:20:36.088Z,3.95
2022-11-10T04:25:58.147Z,4.25
2022-11-10T04:31:00.104Z,4.68
2022-11-10T04:36:02.194Z,4.20
2022-11-10T04:41:04.233Z,4.10
2022-11-10T04:46:07.609Z,4.28
2022-11-10T04:51:11.172Z,4.00
2022-11-10T04:56:17.514Z,4.45
2022-11-10T05:01:27.665Z,4.28
2022-11-10T05:06:29.860Z,4.63
2022-11-10T05:11:31.607Z,5.10
2022-11-10T05:16:33.273Z,5.10
2022-11-10T05:21:34.924Z,4.60
2022-11-10T05:26:36.549Z,4.35
2022-11-10T05:31:38.218Z,4.55
2022-11-10T05:36:39.968Z,5.00
2022-11-10T05:41:41.972Z,3.78
2022-11-10T05:46:44.082Z,5.70
2022-11-10T05:51:46.155Z,5.00
2022-11-10T05:56:47.856Z,3.55
2022-11-10T06:01:49.949Z,4.40
2022-11-10T06:06:51.685Z,4.50
2022-11-10T06:11:53.324Z,4.68
2022-11-10T06:16:54.986Z,4.38
2022-11-10T06:22:02.393Z,4.03
2022-11-10T06:27:06.835Z,3.83
2022-11-10T06:32:08.513Z,3.35
2022-11-10T06:37:10.612Z,3.65
2022-11-10T06:42:12.323Z,4.45
2022-11-10T06:47:14.408Z,3.90
2022-11-10T06:52:16.065Z,3.55
2022-11-10T06:57:18.275Z,3.13
2022-11-10T07:02:20.305Z,3.17
2022-11-10T07:07:22.221Z,3.78
2022-11-10T07:12:24.051Z,3.00
2022-11-10T07:17:25.720Z,3.92
2022-11-10T07:22:27.341Z,3.72
2022-11-10T07:27:29.058Z,4.82
2022-11-10T07:32:30.718Z,4.93
2022-11-10T07:37:32.361Z,3.42
2022-11-10T07:42:39.638Z,3.95
2022-11-10T07:47:41.326Z,4.13
2022-11-10T07:52:43.059Z,3.95
2022-11-10T07:57:44.701Z,2.85
2022-11-10T08:02:46.456Z,4.10
2022-11-10T08:07:48.215Z,3.50
2022-11-10T08:12:55.055Z,3.50
2022-11-10T08:18:15.974Z,3.30
2022-11-10T08:23:18.062Z,3.13
2022-11-10T08:28:20.437Z,3.00
2022-11-10T08:33:22.826Z,3.65
2022-11-10T08:38:24.901Z,2.60
2022-11-10T08:43:28.287Z,1.88
2022-11-10T08:48:29.972Z,2.17
2022-11-10T08:53:31.682Z,1.95
2022-11-10T08:58:33.396Z,1.80
2022-11-10T09:03:35.214Z,2.25
2022-11-10T09:08:38.360Z,1.30
2022-11-10T09:13:40.005Z,5.55
2022-11-10T09:18:41.717Z,1.17
2022-11-10T09:23:43.354Z,1.67
2022-11-10T09:28:45.025Z,2.38
2022-11-10T09:33:46.716Z,1.50
2022-11-10T09:38:48.408Z,1.38
2022-11-10T09:44:14.940Z,1.70
2022-11-10T09:49:38.566Z,1.90
2022-11-10T09:54:47.993Z,1.70
2022-11-10T09:59:49.764Z,2.15
2022-11-10T10:05:08.899Z,1.80
2022-11-10T10:10:29.356Z,1.77
2022-11-10T10:15:39.011Z,2.17
2022-11-10T10:21:12.680Z,2.72
2022-11-10T10:26:18.536Z,1.80
2022-11-10T10:31:26.769Z,1.60
2022-11-10T10:36:32.164Z,1.58
2022-11-10T10:41:36.482Z,1.80
2022-11-10T10:46:56.335Z,2.35
2022-11-10T10:52:05.657Z,2.50
2022-11-10T10:57:30.157Z,1.50
2022-11-10T11:02:32.591Z,1.55
2022-11-10T11:07:34.377Z,2.35
2022-11-10T11:12:36.009Z,1.50
2022-11-10T11:17:37.860Z,1.30
2022-11-10T11:22:52.584Z,1.73
2022-11-10T11:28:27.705Z,1.65
2022-11-10T11:33:45.199Z,1.08
2022-11-10T11:39:05.064Z,1.80
2022-11-10T11:44:09.823Z,1.48
2022-11-10T11:49:41.689Z,1.73
2022-11-10T11:55:22.110Z,12.48
2022-11-10T12:00:24.628Z,1.45
2022-11-10T12:05:43.930Z,1.20
2022-11-10T12:11:10.266Z,1.60
2022-11-10T12:16:21.940Z,0.77
2022-11-10T12:21:28.122Z,1.00
2022-11-10T12:26:55.728Z,1.27
2022-11-10T12:32:22.172Z,1.35
2022-11-10T12:37:37.793Z,1.33
2022-11-10T12:42:39.942Z,1.33
2022-11-10T12:47:44.933Z,5.88
2022-11-10T12:53:03.185Z,1.55
2022-11-10T12:58:07.214Z,1.15
2022-11-10T13:03:34.645Z,1.13
2022-11-10T13:08:42.431Z,1.10
2022-11-10T13:14:05.210Z,1.13
2022-11-10T13:19:33.895Z,1.70
2022-11-10T13:24:40.700Z,1.50
2022-11-10T13:29:48.258Z,1.25
2022-11-10T13:34:50.068Z,1.40
2022-11-10T13:39:52.809Z,1.48
2022-11-10T13:45:14.432Z,0.90
2022-11-10T13:50:40.855Z,1.25
2022-11-10T13:56:03.989Z,1.58
2022-11-10T14:01:17.627Z,0.98
2022-11-10T14:06:26.511Z,1.20
2022-11-10T14:11:40.379Z,1.40
2022-11-10T14:16:43.552Z,1.20
2022-11-10T14:21:57.900Z,1.52
2022-11-10T14:27:16.012Z,1.27
2022-11-10T14:32:24.316Z,2.75
2022-11-10T14:37:28.599Z,3.13
2022-11-10T14:42:33.225Z,1.95
2022-11-10T14:47:36.261Z,1.75
2022-11-10T14:52:40.000Z,2.22
2022-11-10T14:57:41.773Z,4.20
2022-11-10T15:02:43.712Z,2.05
2022-11-10T15:07:45.764Z,1.40
2022-11-10T15:13:00.269Z,1.50
2022-11-10T15:18:01.982Z,2.70
2022-11-10T15:23:12.317Z,5.40
2022-11-10T15:28:13.978Z,3.15
2022-11-10T15:33:20.006Z,1.70
2022-11-10T15:38:31.721Z,1.67
2022-11-10T15:43:33.410Z,2.30
2022-11-10T15:48:50.371Z,3.55
2022-11-10T15:53:52.958Z,2.38
2022-11-10T15:58:59.047Z,1.55
2022-11-10T16:04:02.401Z,4.97
2022-11-10T16:09:04.820Z,3.20
2022-11-10T16:14:07.181Z,4.35
2022-11-10T16:19:12.586Z,3.60
2022-11-10T16:24:14.300Z,4.35
2022-11-10T16:29:17.774Z,4.55
2022-11-10T16:34:19.519Z,4.20
2022-11-10T16:39:21.251Z,4.20
2022-11-10T16:44:25.220Z,5.57
2022-11-10T16:49:32.176Z,3.17
2022-11-10T16:54:33.864Z,3.28
2022-11-10T16:59:35.550Z,4.07
2022-11-10T17:04:37.213Z,2.20
2022-11-10T17:09:39.004Z,5.38
2022-11-10T17:14:41.138Z,6.38
2022-11-10T17:19:43.128Z,4.50
2022-11-10T17:24:51.839Z,2.58
2022-11-10T17:29:53.627Z,2.55
2022-11-10T17:34:55.347Z,3.15
2022-11-10T17:39:58.035Z,2.53
2022-11-10T17:44:59.838Z,2.85
2022-11-10T17:50:02.130Z,5.05
2022-11-10T17:55:04.304Z,8.07
2022-11-10T18:00:06.502Z,13.77
2022-11-10T18:05:14.197Z,10.68
2022-11-10T18:10:17.501Z,6.13
2022-11-10T18:15:19.306Z,8.00
2022-11-10T18:20:20.919Z,15.02
2022-11-10T18:25:22.642Z,13.45
2022-11-10T18:30:24.397Z,17.20
2022-11-10T18:35:26.181Z,8.77
2022-11-10T18:40:28.251Z,15.18
2022-11-10T18:45:30.309Z,12.45
2022-11-10T18:50:32.577Z,9.80
2022-11-10T18:55:34.224Z,4.70
2022-11-10T19:00:36.077Z,6.55
2022-11-10T19:05:38.657Z,15.07
2022-11-10T19:10:43.346Z,19.60
2022-11-10T19:15:45.084Z,18.88
2022-11-10T19:20:46.844Z,17.52
2022-11-10T19:25:48.524Z,14.15
2022-11-10T19:30:50.203Z,14.88
2022-11-10T19:35:51.902Z,9.63
2022-11-10T19:40:53.536Z,15.65
2022-11-10T19:45:55.332Z,16.23
2022-11-10T19:50:59.813Z,18.85
2022-11-10T19:56:03.505Z,20.05
2022-11-10T20:01:06.934Z,18.45
2022-11-10T20:06:11.085Z,20.20
2022-11-10T20:11:21.304Z,18.50
2022-11-10T20:16:23.181Z,19.48
2022-11-10T20:21:25.064Z,17.42
2022-11-10T20:26:27.121Z,11.63
2022-11-10T20:31:29.383Z,13.55
2022-11-10T20:36:31.719Z,14.98
2022-11-10T20:41:33.495Z,14.30
2022-11-10T20:51:59.757Z,20.20
2022-11-10T20:57:02.044Z,15.85
2022-11-10T21:02:03.874Z,17.92
2022-11-10T21:07:05.808Z,38.35
2022-11-10T21:12:26.618Z,19.00
2022-11-10T21:17:28.442Z,15.73
2022-11-10T21:22:30.608Z,7.05
2022-11-10T21:27:32.379Z,5.93
2022-11-10T21:32:34.440Z,4.65
2022-11-10T21:37:36.140Z,8.55
2022-11-10T21:42:37.873Z,7.88
2022-11-10T21:47:39.569Z,8.27
2022-11-10T21:52:41.259Z,7.82
2022-11-10T21:57:43.154Z,7.65
2022-11-10T22:02:45.308Z,7.28
2022-11-10T22:07:46.996Z,17.17
2022-11-10T22:13:07.529Z,6.90
2022-11-10T22:18:33.144Z,5.82
2022-11-10T22:23:53.690Z,3.97
2022-11-10T22:28:55.385Z,4.80
2022-11-10T22:33:57.057Z,7.88
2022-11-10T22:39:03.153Z,6.30
2022-11-10T22:44:06.373Z,6.65
2022-11-10T22:49:10.484Z,6.40
2022-11-10T22:54:15.538Z,5.03
2022-11-10T22:59:18.055Z,9.13
2022-11-10T23:04:19.786Z,5.97
2022-11-10T23:09:21.947Z,6.65
2022-11-10T23:14:23.820Z,5.40
2022-11-10T23:19:25.955Z,7.00
2022-11-10T23:24:27.623Z,5.93
2022-11-10T23:29:29.702Z,4.85
2022-11-10T23:34:31.468Z,4.47
2022-11-10T23:39:33.195Z,5.78
2022-11-10T23:44:35.281Z,6.45
2022-11-10T23:49:36.949Z,5.50
2022-11-10T23:54:38.982Z,8.15
2022-11-10T23:59:40.609Z,5.78
